createdAt,value
2022-12-09T00:00:36.105Z,100572.09
2022-12-09T00:03:03.016Z,100580.00
2022-12-09T00:05:29.973Z,100572.94
2022-12-09T00:07:56.586Z,100575.72
2022-12-09T00:10:23.336Z,100575.63
2022-12-09T00:12:54.059Z,100578.00
2022-12-09T00:15:20.918Z,100578.78
2022-12-09T00:17:47.582Z,100566.47
2022-12-09T00:20:14.198Z,100571.03
2022-12-09T00:22:40.835Z,100559.50
2022-12-09T00:25:07.967Z,100571.22
2022-12-09T00:27:34.472Z,100566.06
2022-12-09T00:30:01.019Z,100563.69
2022-12-09T00:32:28.283Z,100560.34
2022-12-09T00:34:55.020Z,100562.16
2022-12-09T00:37:21.554Z,100563.28
2022-12-09T00:39:48.383Z,100569.59
2022-12-09T00:42:14.992Z,100569.00
2022-12-09T00:44:41.803Z,100568.41
2022-12-09T00:47:08.618Z,100574.72
2022-12-09T00:49:35.176Z,100568.41
2022-12-09T00:52:01.731Z,100569.88
2022-12-09T00:54:28.357Z,100569.78
2022-12-09T00:56:57.156Z,100568.72
2022-12-09T00:59:23.651Z,100570.25
2022-12-09T01:01:50.277Z,100569.03
2022-12-09T01:04:19.564Z,100567.03
2022-12-09T01:06:46.121Z,100555.31
2022-12-09T01:09:14.045Z,100564.25
2022-12-09T01:11:41.106Z,100567.97
2022-12-09T01:14:07.886Z,100564.53
2022-12-09T01:16:35.284Z,100569.03
2022-12-09T01:19:05.846Z,100566.53
2022-12-09T01:21:33.336Z,100574.75
2022-12-09T01:24:00.228Z,100569.78
2022-12-09T01:26:27.542Z,100574.44
2022-12-09T01:28:55.576Z,100577.09
2022-12-09T01:31:24.185Z,100574.44
2022-12-09T01:33:51.789Z,100586.25
2022-12-09T01:36:25.670Z,100580.31
2022-12-09T01:38:52.636Z,100578.78
2022-12-09T01:41:20.708Z,100583.34
2022-12-09T01:44:13.132Z,100586.16
2022-12-09T01:46:40.527Z,100578.00
2022-12-09T01:49:09.389Z,100578.00
2022-12-09T01:51:36.802Z,100584.03
2022-12-09T01:54:03.976Z,100589.09
2022-12-09T01:56:34.209Z,100579.94
2022-12-09T01:59:09.273Z,100581.66
2022-12-09T02:01:36.352Z,100578.81
2022-12-09T02:04:04.128Z,100581.31
2022-12-09T02:06:31.039Z,100574.91
2022-12-09T02:08:59.211Z,100577.41
2022-12-09T02:11:38.705Z,100577.22
2022-12-09T02:14:16.646Z,100577.13
2022-12-09T02:17:13.238Z,100575.50
2022-12-09T02:20:01.510Z,100572.66
2022-12-09T02:22:38.477Z,100577.13
2022-12-09T02:25:14.120Z,100571.88
2022-12-09T02:28:04.952Z,100573.88
2022-12-09T02:30:42.131Z,100573.28
2022-12-09T02:33:26.581Z,100571.00
2022-12-09T02:36:05.696Z,100571.28
2022-12-09T02:38:33.391Z,100571.38
2022-12-09T02:41:07.674Z,100575.75
2022-12-09T02:43:46.658Z,100572.22
2022-12-09T02:46:20.056Z,100576.69
2022-12-09T02:48:54.353Z,100582.03
2022-12-09T02:51:23.492Z,100579.19
2022-12-09T02:53:56.871Z,100571.94
2022-12-09T02:56:24.647Z,100570.81
2022-12-09T02:58:51.586Z,100566.25
2022-12-09T03:01:32.364Z,100567.00
2022-12-09T03:03:59.462Z,100559.75
2022-12-09T03:06:31.470Z,100557.09
2022-12-09T03:09:07.988Z,100557.28
2022-12-09T03:11:35.558Z,100554.59
2022-12-09T03:14:09.874Z,100560.13
2022-12-09T03:16:46.913Z,100560.31
2022-12-09T03:19:29.150Z,100554.31
2022-12-09T03:22:03.985Z,100557.06
2022-12-09T03:24:38.403Z,100554.59
2022-12-09T03:27:09.833Z,100552.78
2022-12-09T03:29:39.933Z,100550.97
2022-12-09T03:32:09.147Z,100544.84
2022-12-09T03:34:42.415Z,100544.84
2022-12-09T03:37:11.725Z,100533.41
2022-12-09T03:39:40.786Z,100540.38
2022-12-09T03:42:18.432Z,100544.94
2022-12-09T03:44:50.551Z,100539.63
2022-12-09T03:47:17.787Z,100541.41
2022-12-09T03:49:44.726Z,100540.66
2022-12-09T03:52:15.574Z,100532.66
2022-12-09T03:54:48.071Z,100541.41
2022-12-09T03:57:19.287Z,100541.41
2022-12-09T03:59:53.566Z,100541.41
2022-12-09T04:02:20.885Z,100538.75
2022-12-09T04:04:47.734Z,100539.72
2022-12-09T04:07:14.427Z,100538.91
2022-12-09T04:09:41.426Z,100539.00
2022-12-09T04:12:08.415Z,100533.56
2022-12-09T04:14:35.370Z,100533.50
2022-12-09T04:17:02.524Z,100531.59
2022-12-09T04:19:29.611Z,100533.31
2022-12-09T04:21:56.182Z,100528.84
2022-12-09T04:24:23.055Z,100529.69
2022-12-09T04:26:49.645Z,100523.50
2022-12-09T04:29:16.138Z,100529.97
2022-12-09T04:31:43.044Z,100525.84
2022-12-09T04:34:10.270Z,100533.25
2022-12-09T04:36:38.124Z,100524.56
2022-12-09T04:39:05.348Z,100527.44
2022-12-09T04:41:32.064Z,100520.47
2022-12-09T04:43:58.613Z,100525.72
2022-12-09T04:46:25.377Z,100529.41
2022-12-09T04:48:52.781Z,100519.88
2022-12-09T04:51:19.535Z,100527.97
2022-12-09T04:53:46.403Z,100519.97
2022-12-09T04:56:19.297Z,100518.06
2022-12-09T04:58:46.802Z,100529.59
2022-12-09T05:01:18.191Z,100524.09
2022-12-09T05:03:51.918Z,100524.66
2022-12-09T05:06:20.037Z,100526.97
2022-12-09T05:08:47.928Z,100520.41
2022-12-09T05:11:15.568Z,100524.56
2022-12-09T05:13:42.541Z,100526.00
2022-12-09T05:16:15.877Z,100524.84
2022-12-09T05:18:44.839Z,100527.34
2022-12-09T05:21:15.129Z,100525.72
2022-12-09T05:23:42.420Z,100519.59
2022-12-09T05:26:12.466Z,100516.28
2022-12-09T05:28:39.565Z,100518.94
2022-12-09T05:31:10.061Z,100518.09
2022-12-09T05:33:37.000Z,100524.19
2022-12-09T05:36:04.281Z,100520.56
2022-12-09T05:38:31.217Z,100522.28
2022-12-09T05:41:01.331Z,100511.50
2022-12-09T05:43:28.238Z,100511.50
2022-12-09T05:45:55.051Z,100509.69
2022-12-09T05:48:22.033Z,100514.00
2022-12-09T05:51:02.054Z,100520.09
2022-12-09T05:53:29.209Z,100510.19
2022-12-09T05:55:56.492Z,100512.75
2022-12-09T05:58:23.499Z,100517.16
2022-12-09T06:00:50.875Z,100519.91
2022-12-09T06:03:17.903Z,100520.09
2022-12-09T06:05:45.092Z,100526.84
2022-12-09T06:08:12.057Z,100521.97
2022-12-09T06:10:39.853Z,100522.50
2022-12-09T06:13:07.881Z,100518.38
2022-12-09T06:15:35.322Z,100520.28
2022-12-09T06:18:02.592Z,100523.91
2022-12-09T06:20:29.888Z,100524.84
2022-12-09T06:22:57.013Z,100522.38
2022-12-09T06:25:23.951Z,100518.75
2022-12-09T06:27:51.957Z,100520.47
2022-12-09T06:30:18.653Z,100527.69
2022-12-09T06:32:45.368Z,100522.38
2022-12-09T06:35:12.355Z,100529.41
2022-12-09T06:37:39.165Z,100524.19
2022-12-09T06:40:06.677Z,100527.69
2022-12-09T06:42:33.634Z,100525.81
2022-12-09T06:45:00.583Z,100522.88
2022-12-09T06:47:27.306Z,100528.09
2022-12-09T06:49:54.110Z,100521.31
2022-12-09T06:52:20.912Z,100525.03
2022-12-09T06:54:47.606Z,100527.78
2022-12-09T06:57:14.978Z,100526.06
2022-12-09T06:59:41.606Z,100518.06
2022-12-09T07:02:10.080Z,100521.59
2022-12-09T07:04:37.365Z,100527.03
2022-12-09T07:07:04.224Z,100522.56
2022-12-09T07:09:31.021Z,100517.03
2022-12-09T07:11:57.726Z,100522.38
2022-12-09T07:14:24.635Z,100524.00
2022-12-09T07:16:51.504Z,100523.03
2022-12-09T07:19:21.200Z,100522.09
2022-12-09T07:21:49.622Z,100526.47
2022-12-09T07:24:18.509Z,100526.47
2022-12-09T07:26:45.793Z,100528.28
2022-12-09T07:29:12.810Z,100533.81
2022-12-09T07:31:39.752Z,100534.06
2022-12-09T07:34:06.834Z,100538.66
2022-12-09T07:36:35.270Z,100542.34
2022-12-09T07:39:06.142Z,100547.88
2022-12-09T07:41:33.123Z,100550.63
2022-12-09T07:43:59.855Z,100556.81
2022-12-09T07:46:29.857Z,100562.16
2022-12-09T07:48:58.372Z,100560.44
2022-12-09T07:51:26.174Z,100563.09
2022-12-09T07:53:53.813Z,100551.47
2022-12-09T07:56:21.048Z,100560.25
2022-12-09T07:58:48.777Z,100561.03
2022-12-09T08:01:18.903Z,100562.66
2022-12-09T08:03:46.654Z,100558.09
2022-12-09T08:06:16.120Z,100559.81
2022-12-09T08:08:44.080Z,100566.94
2022-12-09T08:11:18.973Z,100566.09
2022-12-09T08:13:45.790Z,100566.84
2022-12-09T08:16:15.103Z,100570.19
2022-12-09T08:18:43.011Z,100567.53
2022-12-09T08:21:16.716Z,100563.84
2022-12-09T08:23:44.096Z,100564.59
2022-12-09T08:26:12.897Z,100565.47
2022-12-09T08:28:40.244Z,100569.84
2022-12-09T08:31:08.507Z,100567.94
2022-12-09T08:33:36.527Z,100568.72
2022-12-09T08:36:07.733Z,100569.38
2022-12-09T08:38:34.605Z,100556.81
2022-12-09T08:41:14.182Z,100565.69
2022-12-09T08:43:42.824Z,100552.34
2022-12-09T08:46:10.394Z,100564.81
2022-12-09T08:48:39.020Z,100554.16
2022-12-09T08:51:07.230Z,100550.72
2022-12-09T08:53:34.308Z,100556.13
2022-12-09T08:56:09.421Z,100552.63
2022-12-09T08:58:36.217Z,100558.03
2022-12-09T09:01:03.253Z,100559.34
2022-12-09T09:03:30.454Z,100562.38
2022-12-09T09:06:09.486Z,100562.56
2022-12-09T09:08:39.222Z,100561.44
2022-12-09T09:11:13.468Z,100563.16
2022-12-09T09:13:42.218Z,100558.69
2022-12-09T09:16:11.662Z,100570.97
2022-12-09T09:18:39.489Z,100572.69
2022-12-09T09:21:08.299Z,100570.13
2022-12-09T09:23:35.348Z,100565.63
2022-12-09T09:26:09.551Z,100578.13
2022-12-09T09:28:36.153Z,100583.53
2022-12-09T09:31:05.626Z,100580.97
2022-12-09T09:33:33.257Z,100581.06
2022-12-09T09:36:08.358Z,100578.47
2022-12-09T09:38:36.792Z,100583.53
2022-12-09T09:41:16.663Z,100579.94
2022-12-09T09:43:43.967Z,100582.22
2022-12-09T09:46:20.838Z,100588.25
2022-12-09T09:48:48.702Z,100579.28
2022-12-09T09:51:18.448Z,100581.19
2022-12-09T09:53:49.337Z,100585.00
2022-12-09T09:56:34.570Z,100574.50
2022-12-09T09:59:24.562Z,100577.16
2022-12-09T10:02:19.623Z,100575.44
2022-12-09T10:05:02.035Z,100580.78
2022-12-09T10:07:33.494Z,100577.16
2022-12-09T10:10:26.531Z,100567.25
2022-12-09T10:13:25.383Z,100580.34
2022-12-09T10:16:12.223Z,100577.47
2022-12-09T10:18:48.832Z,100573.69
2022-12-09T10:21:18.149Z,100569.13
2022-12-09T10:23:46.053Z,100569.13
2022-12-09T10:26:26.583Z,100572.81
2022-12-09T10:29:14.178Z,100572.75
2022-12-09T10:31:41.243Z,100572.75
2022-12-09T10:34:10.240Z,100566.63
2022-12-09T10:36:38.758Z,100570.16
2022-12-09T10:39:05.483Z,100571.88
2022-12-09T10:42:05.608Z,100569.22
2022-12-09T10:44:32.111Z,100561.06
2022-12-09T10:47:19.280Z,100569.06
2022-12-09T10:49:50.923Z,100565.25
2022-12-09T10:52:22.969Z,100567.84
2022-12-09T10:54:50.155Z,100563.25
2022-12-09T10:57:17.067Z,100564.22
2022-12-09T11:00:00.934Z,100563.09
2022-12-09T11:02:29.406Z,100553.84
2022-12-09T11:04:57.223Z,100557.19
2022-12-09T11:07:27.062Z,100556.31
2022-12-09T11:09:56.739Z,100558.31
2022-12-09T11:12:27.321Z,100558.41
2022-12-09T11:15:25.903Z,100556.59
2022-12-09T11:18:44.315Z,100553.06
2022-12-09T11:21:36.117Z,100557.84
2022-12-09T11:24:04.831Z,100549.16
2022-12-09T11:26:35.847Z,100556.41
2022-12-09T11:29:06.784Z,100542.09
2022-12-09T11:31:40.001Z,100546.38
2022-12-09T11:34:26.285Z,100546.03
2022-12-09T11:36:57.704Z,100546.69
2022-12-09T11:39:28.467Z,100552.97
2022-12-09T11:42:17.851Z,100546.59
2022-12-09T11:44:56.480Z,100538.03
2022-12-09T11:47:36.511Z,100539.28
2022-12-09T11:50:20.419Z,100537.84
2022-12-09T11:53:07.390Z,100545.69
2022-12-09T11:55:36.523Z,100542.63
2022-12-09T11:58:11.836Z,100539.56
2022-12-09T12:00:51.020Z,100540.03
2022-12-09T12:03:30.694Z,100537.94
2022-12-09T12:06:00.755Z,100537.88
2022-12-09T12:08:35.724Z,100544.94
2022-12-09T12:11:13.551Z,100539.75
2022-12-09T12:13:57.467Z,100539.75
2022-12-09T12:16:39.780Z,100546.06
2022-12-09T12:19:19.856Z,100551.41
2022-12-09T12:22:15.133Z,100541.84
2022-12-09T12:24:41.640Z,100539.19
2022-12-09T12:27:26.631Z,100538.13
2022-12-09T12:30:05.375Z,100538.75
2022-12-09T12:32:38.214Z,100527.09
2022-12-09T12:35:39.102Z,100539.59
2022-12-09T12:38:08.771Z,100522.63
2022-12-09T12:40:44.368Z,100527.84
2022-12-09T12:43:32.212Z,100527.84
2022-12-09T12:46:17.444Z,100526.91
2022-12-09T12:49:21.708Z,100527.84
2022-12-09T12:52:53.871Z,100533.19
2022-12-09T12:55:46.612Z,100521.47
2022-12-09T12:58:31.572Z,100516.88
2022-12-09T13:01:08.557Z,100513.25
2022-12-09T13:03:56.315Z,100514.31
2022-12-09T13:06:35.020Z,100513.44
2022-12-09T13:09:10.532Z,100512.59
2022-12-09T13:11:55.443Z,100511.72
2022-12-09T13:14:31.887Z,100501.59
2022-12-09T13:17:01.748Z,100503.53
2022-12-09T13:19:38.653Z,100506.38
2022-12-09T13:22:06.701Z,100507.03
2022-12-09T13:24:46.309Z,100509.53
2022-12-09T13:27:27.328Z,100503.97
2022-12-09T13:30:18.204Z,100501.97
2022-12-09T13:33:17.009Z,100522.84
2022-12-09T13:36:27.671Z,100528.78
2022-12-09T13:38:54.945Z,100521.22
2022-12-09T13:41:27.733Z,100521.00
2022-12-09T13:43:58.382Z,100520.72
2022-12-09T13:46:27.159Z,100515.38
2022-12-09T13:48:54.831Z,100515.47
2022-12-09T13:51:22.735Z,100515.56
2022-12-09T13:53:58.372Z,100517.38
2022-12-09T13:56:33.966Z,100518.13
2022-12-09T13:59:29.946Z,100519.09
2022-12-09T14:02:09.127Z,100512.13
2022-12-09T14:04:43.709Z,100523.13
2022-12-09T14:07:38.389Z,100517.13
2022-12-09T14:10:05.991Z,100511.00
2022-12-09T14:12:32.786Z,100513.03
2022-12-09T14:15:06.104Z,100510.56
2022-12-09T14:17:35.334Z,100510.44
2022-12-09T14:20:23.385Z,100516.84
2022-12-09T14:23:08.227Z,100517.06
2022-12-09T14:25:34.721Z,100519.16
2022-12-09T14:28:10.392Z,100523.94
2022-12-09T14:31:04.762Z,100523.94
2022-12-09T14:33:42.434Z,100519.25
2022-12-09T14:36:30.432Z,100522.50
2022-12-09T14:41:58.751Z,100520.78
2022-12-09T14:44:39.520Z,100525.06
2022-12-09T14:47:26.331Z,100535.75
2022-12-09T14:49:54.328Z,100533.28
2022-12-09T14:52:33.246Z,100535.38
2022-12-09T14:55:04.514Z,100533.47
2022-12-09T14:57:38.377Z,100539.47
2022-12-09T15:00:06.939Z,100537.56
2022-12-09T15:02:33.934Z,100543.69
2022-12-09T15:05:02.483Z,100535.66
2022-12-09T15:07:34.307Z,100541.97
2022-12-09T15:10:02.474Z,100540.25
2022-12-09T15:12:41.230Z,100542.06
2022-12-09T15:15:10.751Z,100548.16
2022-12-09T15:17:46.883Z,100542.72
2022-12-09T15:20:40.850Z,100535.56
2022-12-09T15:23:18.637Z,100536.22
2022-12-09T15:26:00.271Z,100537.94
2022-12-09T15:28:29.361Z,100538.81
2022-12-09T15:31:00.374Z,100543.38
2022-12-09T15:33:30.913Z,100547.97
2022-12-09T15:36:36.643Z,100549.13
2022-12-09T15:39:07.343Z,100547.41
2022-12-09T15:41:56.902Z,100546.66
2022-12-09T15:44:25.475Z,100553.91
2022-12-09T15:46:55.529Z,100553.13
2022-12-09T15:49:29.921Z,100546.84
2022-12-09T15:51:56.683Z,100550.47
2022-12-09T15:54:29.350Z,100541.50
2022-12-09T15:56:58.948Z,100545.13
2022-12-09T15:59:33.499Z,100542.44
2022-12-09T16:02:01.276Z,100552.19
2022-12-09T16:04:32.163Z,100553.13
2022-12-09T16:07:06.116Z,100554.19
2022-12-09T16:09:32.816Z,100549.91
2022-12-09T16:11:59.956Z,100548.28
2022-12-09T16:14:26.799Z,100545.81
2022-12-09T16:17:03.612Z,100537.09
2022-12-09T16:19:36.171Z,100539.09
2022-12-09T16:22:19.837Z,100540.34
2022-12-09T16:25:13.730Z,100542.25
2022-12-09T16:27:39.584Z,100546.72
2022-12-09T16:30:23.929Z,100543.28
2022-12-09T16:32:53.116Z,100540.81
2022-12-09T16:35:42.883Z,100549.97
2022-12-09T16:38:09.428Z,100537.47
2022-12-09T16:40:44.850Z,100541.38
2022-12-09T16:43:20.430Z,100541.56
2022-12-09T16:45:57.018Z,100535.47
2022-12-09T16:48:25.192Z,100542.91
2022-12-09T16:50:51.703Z,100544.13
2022-12-09T16:53:21.778Z,100546.22
2022-12-09T16:55:59.768Z,100554.53
2022-12-09T16:58:28.683Z,100557.38
2022-12-09T17:00:55.884Z,100555.84
2022-12-09T17:03:42.880Z,100552.69
2022-12-09T17:06:14.004Z,100560.88
2022-12-09T17:08:40.542Z,100558.38
2022-12-09T17:11:07.233Z,100555.00
2022-12-09T17:13:34.165Z,100565.00
2022-12-09T17:16:01.821Z,100568.81
2022-12-09T17:18:29.294Z,100565.53
2022-12-09T17:21:06.815Z,100569.34
2022-12-09T17:23:39.430Z,100574.78
2022-12-09T17:26:09.131Z,100584.59
2022-12-09T17:28:36.713Z,100591.72
2022-12-09T17:31:08.927Z,100583.81
2022-12-09T17:33:35.569Z,100588.47
2022-12-09T17:36:02.134Z,100587.59
2022-12-09T17:38:29.537Z,100585.03
2022-12-09T17:40:56.907Z,100591.31
2022-12-09T17:43:23.476Z,100600.34
2022-12-09T17:45:50.048Z,100594.94
2022-12-09T17:48:16.724Z,100595.88
2022-12-09T17:50:43.201Z,100593.22
2022-12-09T17:53:09.738Z,100605.59
2022-12-09T17:55:38.919Z,100604.66
2022-12-09T17:58:05.703Z,100602.06
2022-12-09T18:00:33.722Z,100605.59
2022-12-09T18:03:00.440Z,100611.78
2022-12-09T18:05:26.964Z,100605.50
2022-12-09T18:07:53.553Z,100616.00
2022-12-09T18:10:20.222Z,100613.34
2022-12-09T18:12:46.725Z,100610.66
2022-12-09T18:15:13.556Z,100609.81
2022-12-09T18:17:40.994Z,100616.19
2022-12-09T18:20:08.259Z,100621.59
2022-12-09T18:22:34.992Z,100622.63
2022-12-09T18:25:01.589Z,100613.78
2022-12-09T18:27:28.087Z,100624.34
2022-12-09T18:29:54.693Z,100626.16
2022-12-09T18:32:21.294Z,100628.91
2022-12-09T18:34:49.218Z,100633.38
2022-12-09T18:37:15.975Z,100630.72
2022-12-09T18:39:42.475Z,100628.91
2022-12-09T18:42:09.120Z,100622.53
2022-12-09T18:44:35.715Z,100626.06
2022-12-09T18:47:02.235Z,100626.84
2022-12-09T18:49:29.335Z,100629.34
2022-12-09T18:51:55.952Z,100632.59
2022-12-09T18:54:27.386Z,100627.00
2022-12-09T18:56:55.515Z,100631.13
2022-12-09T18:59:25.012Z,100631.72
2022-12-09T19:01:52.750Z,100631.53
2022-12-09T19:04:23.989Z,100636.72
2022-12-09T19:06:53.092Z,100635.78
2022-12-09T19:09:22.258Z,100637.50
2022-12-09T19:11:50.160Z,100636.63
2022-12-09T19:14:18.672Z,100642.06
2022-12-09T19:16:46.407Z,100643.94
2022-12-09T19:19:15.572Z,100647.72
2022-12-09T19:21:43.014Z,100649.63
2022-12-09T19:24:15.307Z,100643.59
2022-12-09T19:26:42.856Z,100649.97
2022-12-09T19:29:10.550Z,100645.75
2022-12-09T19:31:43.542Z,100646.88
2022-12-09T19:34:22.372Z,100654.38
2022-12-09T19:36:51.204Z,100655.59
2022-12-09T19:39:19.455Z,100657.56
2022-12-09T19:41:47.671Z,100651.56
2022-12-09T19:44:30.903Z,100665.81
2022-12-09T19:47:04.057Z,100665.22
2022-12-09T19:49:30.596Z,100659.28
2022-12-09T19:51:58.229Z,100660.41
2022-12-09T19:54:28.830Z,100667.81
2022-12-09T19:56:56.394Z,100670.81
2022-12-09T19:59:23.008Z,100670.03
2022-12-09T20:01:49.691Z,100672.78
2022-12-09T20:04:47.411Z,100665.66
2022-12-09T20:07:08.087Z,100665.00
2022-12-09T20:09:35.484Z,100669.56
2022-12-09T20:12:01.955Z,100666.88
2022-12-09T20:14:28.459Z,100673.22
2022-12-09T20:16:55.036Z,100674.41
2022-12-09T20:19:21.669Z,100673.81
2022-12-09T20:21:48.869Z,100681.00
2022-12-09T20:24:15.398Z,100693.47
2022-12-09T20:26:42.015Z,100693.63
2022-12-09T20:29:10.672Z,100681.50
2022-12-09T20:31:38.572Z,100692.66
2022-12-09T20:34:08.977Z,100687.03
2022-12-09T20:36:37.132Z,100690.09
2022-12-09T20:39:11.157Z,100682.19
2022-12-09T20:41:38.318Z,100690.19
2022-12-09T20:44:04.875Z,100694.56
2022-12-09T20:46:33.331Z,100696.28
2022-12-09T20:49:00.408Z,100698.00
2022-12-09T20:51:30.424Z,100698.88
2022-12-09T20:53:57.648Z,100695.34
2022-12-09T20:56:26.459Z,100704.19
2022-12-09T20:58:53.864Z,100696.19
2022-12-09T21:01:29.536Z,100698.09
2022-12-09T21:03:58.137Z,100698.16
2022-12-09T21:06:29.882Z,100700.91
2022-12-09T21:08:59.952Z,100696.59
2022-12-09T21:11:26.839Z,100691.50
2022-12-09T21:14:04.993Z,100696.38
2022-12-09T21:16:34.565Z,100691.25
2022-12-09T21:19:05.173Z,100687.03
2022-12-09T21:21:34.884Z,100688.91
2022-12-09T21:24:02.236Z,100686.47
2022-12-09T21:26:29.491Z,100682.16
2022-12-09T21:28:58.067Z,100687.66
2022-12-09T21:31:27.370Z,100688.66
2022-12-09T21:33:55.964Z,100701.09
2022-12-09T21:36:26.191Z,100702.28
2022-12-09T21:38:53.793Z,100700.78
2022-12-09T21:41:23.494Z,100700.94
2022-12-09T21:43:50.821Z,100698.72
2022-12-09T21:46:22.955Z,100705.44
2022-12-09T21:48:52.566Z,100696.81
2022-12-09T21:51:21.235Z,100696.03
2022-12-09T21:53:49.156Z,100704.25
2022-12-09T21:56:24.147Z,100698.22
2022-12-09T21:58:52.655Z,100699.16
2022-12-09T22:01:23.558Z,100695.66
2022-12-09T22:03:50.198Z,100691.44
2022-12-09T22:06:17.529Z,100696.97
2022-12-09T22:08:44.753Z,100697.19
2022-12-09T22:11:17.549Z,100703.59
2022-12-09T22:13:44.531Z,100707.25
2022-12-09T22:16:19.903Z,100713.50
2022-12-09T22:18:46.379Z,100716.31
2022-12-09T22:21:26.326Z,100714.44
2022-12-09T22:23:55.372Z,100717.25
2022-12-09T22:26:22.861Z,100715.59
2022-12-09T22:28:50.239Z,100714.88
2022-12-09T22:31:23.316Z,100722.06
2022-12-09T22:33:51.972Z,100728.22
2022-12-09T22:36:19.492Z,100723.91
2022-12-09T22:38:46.591Z,100724.84
2022-12-09T22:41:16.352Z,100728.44
2022-12-09T22:43:43.372Z,100727.66
2022-12-09T22:46:13.707Z,100734.91
2022-12-09T22:48:41.220Z,100733.31
2022-12-09T22:51:12.065Z,100736.97
2022-12-09T22:53:38.925Z,100741.28
2022-12-09T22:56:06.342Z,100742.09
2022-12-09T22:58:34.399Z,100740.06
2022-12-09T23:01:00.946Z,100746.03
2022-12-09T23:03:27.657Z,100736.06
2022-12-09T23:05:54.492Z,100741.00
2022-12-09T23:08:21.070Z,100728.59
2022-12-09T23:10:47.737Z,100720.53
2022-12-09T23:13:14.227Z,100724.84
2022-12-09T23:15:40.823Z,100726.56
2022-12-09T23:18:07.414Z,100723.84
2022-12-09T23:20:33.963Z,100729.03
2022-12-09T23:23:00.755Z,100722.63
2022-12-09T23:25:27.241Z,100718.97
2022-12-09T23:27:53.740Z,100728.50
2022-12-09T23:30:20.265Z,100723.97
2022-12-09T23:32:46.803Z,100723.06
2022-12-09T23:35:13.412Z,100730.13
2022-12-09T23:37:40.038Z,100730.03
2022-12-09T23:40:07.520Z,100736.22
2022-12-09T23:42:34.268Z,100737.16
2022-12-09T23:45:00.752Z,100733.56
2022-12-09T23:47:27.423Z,100743.28
2022-12-09T23:49:54.630Z,100742.56
2022-12-09T23:52:21.397Z,100738.16
2022-12-09T23:54:47.960Z,100744.38
2022-12-09T23:57:14.527Z,100744.47
2022-12-09T23:59:41.118Z,100750.72
